createdAt,value
2019-02-18T00:02:31.944Z,49.52
2019-02-18T00:05:12.619Z,49.39
2019-02-18T00:07:42.816Z,49.76
2019-02-18T00:10:31.179Z,50.04
2019-02-18T00:13:01.443Z,50.19
2019-02-18T00:15:31.653Z,50.49
2019-02-18T00:18:01.861Z,50.53
2019-02-18T00:20:32.065Z,49.74
2019-02-18T00:23:02.264Z,49.68
2019-02-18T00:25:32.479Z,49.60
2019-02-18T00:28:02.690Z,49.84
2019-02-18T00:30:32.868Z,50.18
2019-02-18T00:33:03.055Z,50.58
2019-02-18T00:35:36.222Z,50.90
2019-02-18T00:38:06.424Z,50.07
2019-02-18T00:40:43.613Z,50.39
2019-02-18T00:43:13.814Z,50.67
2019-02-18T00:45:43.992Z,51.12
2019-02-18T00:48:14.191Z,50.12
2019-02-18T00:50:44.384Z,50.19
2019-02-18T00:53:14.677Z,50.67
2019-02-18T00:55:44.831Z,50.94
2019-02-18T00:58:15.021Z,51.29
2019-02-18T01:00:52.013Z,51.15
2019-02-18T01:03:37.532Z,50.94
2019-02-18T01:06:07.704Z,51.56
2019-02-18T01:08:37.899Z,51.72
2019-02-18T01:11:29.326Z,51.00
2019-02-18T01:13:59.522Z,50.90
2019-02-18T01:16:29.691Z,51.05
2019-02-18T01:19:35.471Z,50.61
2019-02-18T01:22:11.125Z,50.28
2019-02-18T01:24:41.333Z,50.81
2019-02-18T01:27:11.514Z,51.37
2019-02-18T01:29:56.728Z,51.33
2019-02-18T01:32:26.902Z,50.49
2019-02-18T01:34:57.103Z,51.44
2019-02-18T01:37:27.290Z,51.71
2019-02-18T01:40:02.205Z,51.73
2019-02-18T01:42:58.382Z,51.29
2019-02-18T01:45:28.585Z,51.10
2019-02-18T01:47:58.784Z,51.82
2019-02-18T01:50:30.040Z,51.51
2019-02-18T01:53:00.230Z,51.11
2019-02-18T01:55:44.572Z,51.30
2019-02-18T01:58:14.763Z,52.10
2019-02-18T02:00:48.184Z,52.47
2019-02-18T02:03:20.245Z,52.14
2019-02-18T02:05:50.512Z,52.01
2019-02-18T02:08:25.231Z,52.75
2019-02-18T02:11:03.707Z,52.69
2019-02-18T02:13:35.650Z,53.97
2019-02-18T02:16:07.502Z,53.06
2019-02-18T02:18:37.683Z,53.52
2019-02-18T02:21:07.891Z,52.96
2019-02-18T02:23:38.059Z,53.44
2019-02-18T02:26:09.352Z,53.86
2019-02-18T02:28:39.515Z,53.69
2019-02-18T02:31:09.719Z,53.40
2019-02-18T02:33:39.973Z,54.11
2019-02-18T02:36:10.173Z,53.29
2019-02-18T02:38:42.294Z,54.13
2019-02-18T02:41:12.472Z,53.87
2019-02-18T02:43:45.703Z,53.29
2019-02-18T02:46:15.905Z,54.14
2019-02-18T02:48:47.127Z,53.80
2019-02-18T02:51:23.053Z,53.88
2019-02-18T02:54:04.368Z,54.15
2019-02-18T02:57:07.845Z,53.46
2019-02-18T02:59:43.102Z,53.41
2019-02-18T03:02:14.178Z,53.95
2019-02-18T03:04:44.389Z,53.25
2019-02-18T03:07:14.568Z,53.66
2019-02-18T03:09:45.732Z,54.16
2019-02-18T03:12:16.831Z,53.51
2019-02-18T03:14:47.017Z,53.84
2019-02-18T03:17:17.225Z,54.17
2019-02-18T03:19:47.419Z,53.96
2019-02-18T03:22:18.745Z,53.40
2019-02-18T03:25:23.115Z,53.40
2019-02-18T03:28:19.026Z,53.56
2019-02-18T03:30:55.439Z,53.10
2019-02-18T03:33:45.275Z,53.30
2019-02-18T03:36:15.938Z,53.42
2019-02-18T03:38:46.119Z,53.57
2019-02-18T03:41:28.368Z,53.85
2019-02-18T03:43:59.622Z,53.97
2019-02-18T03:46:29.826Z,54.04
2019-02-18T03:49:00.004Z,54.10
2019-02-18T03:51:40.784Z,53.51
2019-02-18T03:54:30.789Z,53.93
2019-02-18T03:57:08.613Z,54.23
2019-02-18T03:59:38.807Z,53.66
2019-02-18T04:02:09.010Z,54.18
2019-02-18T04:04:55.179Z,53.91
2019-02-18T04:07:25.359Z,54.32
2019-02-18T04:09:56.539Z,54.21
2019-02-18T04:12:51.985Z,54.32
2019-02-18T04:15:29.099Z,53.92
2019-02-18T04:17:59.286Z,54.49
2019-02-18T04:20:29.479Z,55.23
2019-02-18T04:22:59.685Z,55.09
2019-02-18T04:25:29.880Z,54.79
2019-02-18T04:28:06.185Z,54.78
2019-02-18T04:30:36.360Z,54.58
2019-02-18T04:33:06.584Z,54.35
2019-02-18T04:35:36.766Z,55.04
2019-02-18T04:38:06.953Z,55.14
2019-02-18T04:40:40.815Z,55.34
2019-02-18T04:43:11.011Z,55.77
2019-02-18T04:45:43.311Z,55.01
2019-02-18T04:48:21.666Z,54.68
2019-02-18T04:50:56.229Z,54.71
2019-02-18T04:53:27.357Z,55.44
2019-02-18T04:55:57.559Z,55.99
2019-02-18T04:58:27.715Z,55.55
2019-02-18T05:01:24.084Z,55.99
2019-02-18T05:03:59.900Z,56.18
2019-02-18T05:06:30.084Z,55.73
2019-02-18T05:09:05.324Z,55.85
2019-02-18T05:11:36.068Z,56.53
2019-02-18T05:14:15.076Z,56.87
2019-02-18T05:16:45.287Z,56.71
2019-02-18T05:19:58.871Z,56.73
2019-02-18T05:22:29.068Z,56.62
2019-02-18T05:25:02.367Z,56.10
2019-02-18T05:27:33.535Z,56.47
2019-02-18T05:30:12.323Z,56.56
2019-02-18T05:32:48.335Z,56.25
2019-02-18T05:35:41.679Z,55.85
2019-02-18T05:38:11.892Z,57.33
2019-02-18T05:40:42.067Z,56.77
2019-02-18T05:43:17.905Z,57.15
2019-02-18T05:45:49.002Z,57.02
2019-02-18T05:48:19.196Z,57.23
2019-02-18T05:50:54.076Z,57.41
2019-02-18T05:53:24.266Z,56.94
2019-02-18T05:55:54.436Z,56.79
2019-02-18T05:58:39.802Z,55.79
2019-02-18T06:01:13.604Z,56.79
2019-02-18T06:03:43.809Z,57.44
2019-02-18T06:06:13.982Z,57.19
2019-02-18T06:08:59.583Z,57.19
2019-02-18T06:11:33.655Z,56.51
2019-02-18T06:14:15.841Z,57.11
2019-02-18T06:16:46.022Z,57.37
2019-02-18T06:19:16.229Z,57.50
2019-02-18T06:21:49.522Z,57.73
2019-02-18T06:24:28.809Z,56.66
2019-02-18T06:27:00.626Z,57.41
2019-02-18T06:29:30.824Z,57.57
2019-02-18T06:32:04.876Z,56.62
2019-02-18T06:34:35.071Z,57.25
2019-02-18T06:37:05.243Z,57.58
2019-02-18T06:39:47.526Z,57.75
2019-02-18T06:42:17.704Z,57.86
2019-02-18T06:44:50.458Z,56.83
2019-02-18T06:47:21.529Z,57.20
2019-02-18T06:50:03.331Z,56.39
2019-02-18T06:52:38.634Z,56.03
2019-02-18T06:55:14.508Z,55.85
2019-02-18T06:58:16.408Z,56.26
2019-02-18T07:00:54.106Z,55.86
2019-02-18T07:03:40.986Z,56.21
2019-02-18T07:06:12.772Z,56.01
2019-02-18T07:08:44.603Z,56.27
2019-02-18T07:11:23.787Z,56.46
2019-02-18T07:13:53.952Z,56.29
2019-02-18T07:16:26.117Z,56.39
2019-02-18T07:19:04.662Z,56.56
2019-02-18T07:21:46.207Z,55.72
2019-02-18T07:24:16.383Z,55.66
2019-02-18T07:26:46.616Z,55.90
2019-02-18T07:29:22.758Z,55.79
2019-02-18T07:31:52.980Z,56.30
2019-02-18T07:34:27.373Z,55.44
2019-02-18T07:36:57.589Z,55.31
2019-02-18T07:39:27.833Z,54.67
2019-02-18T07:41:58.006Z,53.26
2019-02-18T07:44:32.209Z,51.52
2019-02-18T07:47:02.927Z,51.14
2019-02-18T07:49:52.891Z,51.07
2019-02-18T07:52:23.133Z,50.78
2019-02-18T07:54:53.333Z,49.74
2019-02-18T07:57:29.494Z,48.19
2019-02-18T08:00:12.303Z,46.95
2019-02-18T08:02:48.235Z,46.65
2019-02-18T08:05:29.587Z,47.08
2019-02-18T08:07:59.839Z,47.11
2019-02-18T08:10:30.016Z,46.20
2019-02-18T08:13:14.975Z,44.74
2019-02-18T08:15:45.158Z,44.22
2019-02-18T08:18:16.290Z,44.28
2019-02-18T08:20:46.497Z,44.35
2019-02-18T08:23:16.714Z,43.06
2019-02-18T08:25:46.956Z,43.49
2019-02-18T08:28:17.178Z,43.01
2019-02-18T08:30:52.316Z,43.47
2019-02-18T08:33:22.526Z,42.77
2019-02-18T08:35:52.801Z,42.54
2019-02-18T08:38:28.995Z,42.53
2019-02-18T08:40:59.190Z,42.24
2019-02-18T08:43:30.635Z,41.30
2019-02-18T08:46:07.674Z,40.98
2019-02-18T08:48:49.761Z,41.10
2019-02-18T08:51:19.932Z,41.10
2019-02-18T08:54:02.073Z,41.36
2019-02-18T08:56:32.257Z,41.11
2019-02-18T08:59:03.445Z,41.05
2019-02-18T09:01:33.637Z,40.72
2019-02-18T09:04:03.850Z,40.90
2019-02-18T09:06:40.992Z,41.26
2019-02-18T09:09:11.197Z,41.11
2019-02-18T09:11:41.377Z,40.98
2019-02-18T09:14:12.519Z,40.98
2019-02-18T09:16:43.570Z,40.37
2019-02-18T09:19:19.035Z,39.87
2019-02-18T09:21:50.864Z,39.83
2019-02-18T09:24:47.730Z,39.94
2019-02-18T09:27:17.923Z,39.35
2019-02-18T09:29:50.737Z,39.27
2019-02-18T09:32:25.744Z,38.69
2019-02-18T09:35:02.114Z,38.10
2019-02-18T09:37:31.015Z,37.89
2019-02-18T09:40:09.129Z,36.66
2019-02-18T09:42:39.324Z,37.42
2019-02-18T09:45:28.703Z,36.90
2019-02-18T09:47:58.928Z,36.99
2019-02-18T09:50:29.165Z,37.51
2019-02-18T09:52:59.341Z,37.08
2019-02-18T09:55:29.570Z,36.57
2019-02-18T09:58:00.679Z,37.17
2019-02-18T10:00:32.805Z,36.12
2019-02-18T10:03:03.901Z,36.68
2019-02-18T10:05:34.099Z,36.92
2019-02-18T10:08:09.280Z,36.69
2019-02-18T10:10:39.489Z,37.19
2019-02-18T10:13:09.679Z,37.15
2019-02-18T10:15:52.756Z,37.16
2019-02-18T10:18:22.939Z,36.58
2019-02-18T10:20:53.155Z,37.11
2019-02-18T10:23:23.340Z,36.77
2019-02-18T10:25:55.489Z,36.30
2019-02-18T10:28:35.583Z,36.96
2019-02-18T10:31:06.700Z,37.12
2019-02-18T10:33:54.105Z,36.67
2019-02-18T10:36:24.322Z,36.85
2019-02-18T10:38:54.511Z,36.25
2019-02-18T10:41:24.726Z,36.19
2019-02-18T10:43:55.003Z,36.21
2019-02-18T10:46:25.207Z,36.48
2019-02-18T10:48:56.330Z,36.17
2019-02-18T10:51:26.546Z,36.50
2019-02-18T10:53:59.698Z,36.30
2019-02-18T10:56:30.244Z,36.29
2019-02-18T10:59:00.457Z,35.18
2019-02-18T11:01:32.615Z,36.28
2019-02-18T11:04:04.720Z,33.98
2019-02-18T11:06:48.231Z,34.03
2019-02-18T11:09:18.426Z,34.55
2019-02-18T11:11:48.833Z,34.42
2019-02-18T11:14:19.031Z,33.71
2019-02-18T11:16:55.312Z,33.61
2019-02-18T11:19:29.274Z,33.95
2019-02-18T11:21:59.506Z,33.48
2019-02-18T11:24:31.638Z,32.92
2019-02-18T11:27:02.754Z,32.60
2019-02-18T11:29:32.948Z,32.60
2019-02-18T11:32:04.135Z,32.77
2019-02-18T11:34:36.334Z,32.42
2019-02-18T11:37:13.874Z,32.86
2019-02-18T11:39:44.520Z,31.94
2019-02-18T11:42:14.732Z,31.38
2019-02-18T11:44:44.905Z,31.72
2019-02-18T11:47:15.104Z,31.83
2019-02-18T11:49:49.633Z,31.28
2019-02-18T11:52:27.554Z,30.91
2019-02-18T11:55:01.653Z,32.09
2019-02-18T11:57:34.777Z,31.60
2019-02-18T12:00:15.305Z,31.59
2019-02-18T12:03:03.987Z,31.31
2019-02-18T12:05:44.528Z,30.86
2019-02-18T12:08:19.047Z,31.51
2019-02-18T12:10:52.297Z,31.65
2019-02-18T12:13:27.380Z,31.18
2019-02-18T12:15:58.479Z,31.43
2019-02-18T12:18:29.963Z,31.70
2019-02-18T12:21:06.329Z,31.08
2019-02-18T12:23:37.617Z,31.43
2019-02-18T12:26:07.795Z,29.28
2019-02-18T12:28:39.966Z,29.77
2019-02-18T12:31:10.324Z,31.41
2019-02-18T12:33:41.466Z,30.52
2019-02-18T12:36:11.664Z,30.12
2019-02-18T12:38:45.722Z,30.60
2019-02-18T12:41:15.912Z,29.50
2019-02-18T12:43:46.418Z,29.99
2019-02-18T12:46:16.623Z,30.58
2019-02-18T12:48:53.696Z,30.68
2019-02-18T12:51:23.890Z,30.10
2019-02-18T12:54:04.525Z,30.39
2019-02-18T12:56:25.976Z,30.78
2019-02-18T12:58:56.202Z,30.34
2019-02-18T13:01:27.782Z,30.05
2019-02-18T13:04:00.065Z,29.98
2019-02-18T13:06:30.258Z,29.32
2019-02-18T13:09:10.723Z,29.92
2019-02-18T13:11:42.926Z,29.59
2019-02-18T13:14:19.032Z,29.83
2019-02-18T13:16:49.306Z,29.79
2019-02-18T13:19:22.498Z,29.72
2019-02-18T13:21:52.685Z,30.07
2019-02-18T13:24:31.250Z,28.87
2019-02-18T13:27:11.794Z,29.27
2019-02-18T13:29:57.148Z,29.46
2019-02-18T13:32:27.627Z,29.26
2019-02-18T13:35:07.831Z,29.60
2019-02-18T13:37:38.022Z,29.83
2019-02-18T13:40:15.936Z,29.99
2019-02-18T13:42:46.548Z,30.10
2019-02-18T13:45:16.734Z,29.41
2019-02-18T13:47:46.938Z,29.22
2019-02-18T13:50:17.127Z,29.18
2019-02-18T13:52:47.322Z,29.66
2019-02-18T13:55:18.451Z,29.51
2019-02-18T13:57:49.628Z,28.98
2019-02-18T14:00:25.678Z,28.89
2019-02-18T14:03:14.380Z,29.21
2019-02-18T14:05:44.956Z,29.06
2019-02-18T14:08:17.091Z,28.92
2019-02-18T14:10:47.321Z,30.06
2019-02-18T14:13:20.691Z,29.93
2019-02-18T14:15:50.906Z,30.05
2019-02-18T14:18:24.403Z,30.09
2019-02-18T14:20:54.630Z,30.29
2019-02-18T14:23:24.824Z,30.29
2019-02-18T14:25:55.019Z,29.81
2019-02-18T14:28:35.656Z,30.76
2019-02-18T14:31:05.917Z,30.75
2019-02-18T14:33:41.220Z,30.78
2019-02-18T14:36:15.976Z,30.99
2019-02-18T14:39:00.478Z,31.21
2019-02-18T14:41:34.402Z,30.83
2019-02-18T14:44:04.961Z,31.03
2019-02-18T14:46:35.158Z,31.56
2019-02-18T14:49:05.368Z,31.40
2019-02-18T14:51:35.570Z,31.58
2019-02-18T14:54:05.778Z,32.02
2019-02-18T14:56:36.003Z,31.96
2019-02-18T14:59:10.337Z,31.59
2019-02-18T15:01:40.561Z,31.92
2019-02-18T15:04:18.267Z,31.73
2019-02-18T15:07:04.456Z,31.59
2019-02-18T15:09:40.219Z,32.02
2019-02-18T15:12:39.731Z,31.77
2019-02-18T15:15:14.738Z,31.77
2019-02-18T15:17:58.013Z,32.08
2019-02-18T15:20:30.203Z,32.11
2019-02-18T15:23:10.324Z,32.28
2019-02-18T15:25:44.050Z,32.43
2019-02-18T15:28:14.308Z,32.25
2019-02-18T15:30:47.886Z,32.99
2019-02-18T15:33:31.201Z,33.29
2019-02-18T15:36:01.517Z,33.33
2019-02-18T15:38:31.737Z,33.67
2019-02-18T15:41:04.295Z,33.71
2019-02-18T15:43:34.498Z,33.48
2019-02-18T15:46:05.758Z,33.95
2019-02-18T15:48:36.503Z,34.58
2019-02-18T15:51:06.797Z,34.69
2019-02-18T15:54:05.838Z,34.49
2019-02-18T15:56:42.371Z,34.30
2019-02-18T15:59:12.579Z,34.26
2019-02-18T16:01:48.820Z,34.55
2019-02-18T16:04:31.926Z,34.09
2019-02-18T16:07:02.166Z,35.18
2019-02-18T16:09:38.148Z,35.51
2019-02-18T16:12:28.593Z,35.46
2019-02-18T16:14:58.806Z,35.65
2019-02-18T16:17:35.636Z,36.28
2019-02-18T16:20:13.534Z,36.44
2019-02-18T16:22:43.797Z,36.08
2019-02-18T16:25:24.190Z,36.08
2019-02-18T16:27:54.390Z,36.45
2019-02-18T16:30:24.970Z,36.52
2019-02-18T16:32:57.179Z,36.67
2019-02-18T16:35:27.668Z,37.06
2019-02-18T16:38:22.949Z,37.03
2019-02-18T16:40:53.171Z,37.92
2019-02-18T16:43:23.644Z,38.42
2019-02-18T16:45:57.120Z,39.38
2019-02-18T16:48:27.497Z,39.30
2019-02-18T16:51:10.623Z,37.21
2019-02-18T16:53:40.815Z,35.93
2019-02-18T16:56:11.037Z,34.79
2019-02-18T16:58:52.274Z,34.12
2019-02-18T17:01:29.817Z,33.95
2019-02-18T17:04:00.005Z,34.17
2019-02-18T17:06:37.747Z,34.39
2019-02-18T17:09:12.227Z,34.46
2019-02-18T17:11:42.701Z,34.50
2019-02-18T17:14:13.956Z,35.01
2019-02-18T17:16:44.145Z,35.79
2019-02-18T17:19:23.408Z,36.00
2019-02-18T17:21:53.607Z,36.48
2019-02-18T17:24:37.113Z,36.48
2019-02-18T17:27:07.333Z,36.73
2019-02-18T17:29:50.180Z,37.02
2019-02-18T17:32:22.715Z,37.51
2019-02-18T17:34:53.832Z,37.84
2019-02-18T17:37:24.044Z,37.88
2019-02-18T17:39:54.243Z,37.94
2019-02-18T17:42:24.437Z,38.31
2019-02-18T17:44:56.575Z,38.41
2019-02-18T17:47:26.776Z,38.57
2019-02-18T17:49:56.978Z,38.81
2019-02-18T17:52:27.167Z,39.34
2019-02-18T17:55:04.643Z,39.50
2019-02-18T17:57:41.666Z,39.98
2019-02-18T18:00:15.964Z,40.09
2019-02-18T18:02:51.147Z,40.50
2019-02-18T18:05:28.839Z,40.29
2019-02-18T18:08:02.459Z,40.39
2019-02-18T18:10:32.748Z,40.67
2019-02-18T18:13:02.947Z,40.70
2019-02-18T18:15:38.662Z,40.97
2019-02-18T18:18:08.917Z,40.82
2019-02-18T18:20:39.501Z,41.28
2019-02-18T18:23:09.698Z,41.55
2019-02-18T18:25:39.918Z,41.42
2019-02-18T18:28:37.649Z,41.72
2019-02-18T18:31:20.412Z,42.21
2019-02-18T18:33:50.626Z,42.69
2019-02-18T18:36:42.255Z,42.98
2019-02-18T18:39:12.437Z,43.47
2019-02-18T18:41:50.867Z,44.15
2019-02-18T18:44:31.951Z,44.31
2019-02-18T18:47:10.741Z,44.72
2019-02-18T18:49:54.227Z,44.92
2019-02-18T18:52:24.427Z,45.38
2019-02-18T18:54:56.555Z,45.39
2019-02-18T18:57:26.741Z,45.67
2019-02-18T18:59:56.949Z,45.80
2019-02-18T19:02:38.430Z,45.69
2019-02-18T19:05:18.728Z,46.43
2019-02-18T19:08:06.111Z,46.87
2019-02-18T19:10:36.486Z,46.72
2019-02-18T19:13:06.860Z,46.47
2019-02-18T19:15:49.794Z,47.22
2019-02-18T19:18:20.008Z,47.29
2019-02-18T19:20:51.276Z,47.23
2019-02-18T19:23:46.643Z,47.80
2019-02-18T19:26:21.681Z,47.58
2019-02-18T19:28:52.189Z,47.65
2019-02-18T19:31:22.363Z,47.30
2019-02-18T19:33:52.551Z,47.58
2019-02-18T19:36:46.525Z,47.76
2019-02-18T19:39:48.516Z,47.95
2019-02-18T19:42:20.745Z,47.78
2019-02-18T19:44:50.931Z,48.15
2019-02-18T19:47:36.392Z,48.40
2019-02-18T19:50:07.735Z,48.73
2019-02-18T19:52:37.958Z,48.02
2019-02-18T19:55:10.185Z,48.49
2019-02-18T19:57:40.454Z,48.28
2019-02-18T20:00:18.798Z,48.42
2019-02-18T20:02:49.059Z,49.49
2019-02-18T20:05:34.593Z,49.11
2019-02-18T20:08:09.070Z,50.01
2019-02-18T20:10:39.415Z,49.57
2019-02-18T20:13:09.604Z,50.18
2019-02-18T20:16:19.368Z,49.94
2019-02-18T20:18:49.569Z,50.16
2019-02-18T20:21:31.732Z,50.03
2019-02-18T20:24:01.930Z,50.29
2019-02-18T20:26:41.282Z,51.44
2019-02-18T20:29:13.718Z,51.97
2019-02-18T20:31:44.199Z,52.08
2019-02-18T20:34:14.412Z,51.67
2019-02-18T20:36:44.586Z,51.16
2019-02-18T20:39:15.047Z,51.11
2019-02-18T20:41:52.256Z,50.70
2019-02-18T20:44:22.443Z,51.06
2019-02-18T20:46:52.635Z,50.78
2019-02-18T20:49:23.120Z,50.92
2019-02-18T20:51:55.592Z,51.22
2019-02-18T20:54:25.809Z,51.41
2019-02-18T20:57:22.522Z,50.95
2019-02-18T20:59:53.099Z,51.01
2019-02-18T21:02:27.890Z,51.19
2019-02-18T21:05:05.684Z,50.90
2019-02-18T21:07:46.890Z,50.91
2019-02-18T21:10:20.944Z,51.46
2019-02-18T21:12:51.213Z,51.38
2019-02-18T21:15:21.429Z,51.79
2019-02-18T21:17:53.518Z,52.00
2019-02-18T21:20:23.703Z,52.31
2019-02-18T21:22:55.913Z,52.85
2019-02-18T21:25:30.586Z,51.90
2019-02-18T21:28:07.852Z,53.03
2019-02-18T21:30:38.043Z,53.12
2019-02-18T21:33:08.598Z,52.77
2019-02-18T21:35:45.203Z,52.75
2019-02-18T21:38:22.232Z,53.79
2019-02-18T21:40:52.449Z,54.26
2019-02-18T21:43:53.150Z,53.79
2019-02-18T21:46:34.666Z,54.61
2019-02-18T21:49:29.439Z,54.77
2019-02-18T21:52:00.578Z,54.86
2019-02-18T21:55:00.328Z,54.88
2019-02-18T21:57:30.928Z,55.40
2019-02-18T22:00:22.761Z,54.87
2019-02-18T22:03:02.402Z,54.76
2019-02-18T22:05:51.781Z,54.51
2019-02-18T22:08:23.232Z,54.02
2019-02-18T22:10:55.338Z,53.81
2019-02-18T22:13:25.718Z,53.53
2019-02-18T22:15:55.919Z,53.93
2019-02-18T22:18:27.083Z,54.12
2019-02-18T22:20:57.275Z,53.36
2019-02-18T22:23:29.983Z,54.51
2019-02-18T22:26:00.680Z,54.28
2019-02-18T22:28:31.330Z,54.43
2019-02-18T22:31:14.502Z,54.50
2019-02-18T22:33:44.799Z,54.57
2019-02-18T22:36:43.585Z,55.51
2019-02-18T22:39:13.951Z,55.32
2019-02-18T22:41:49.956Z,55.90
2019-02-18T22:44:26.041Z,55.42
2019-02-18T22:47:00.293Z,54.96
2019-02-18T22:49:32.697Z,55.84
2019-02-18T22:52:20.047Z,56.10
2019-02-18T22:54:50.973Z,56.07
2019-02-18T22:57:55.979Z,56.82
2019-02-18T23:00:45.630Z,56.60
2019-02-18T23:03:30.358Z,56.86
2019-02-18T23:06:07.489Z,56.49
2019-02-18T23:08:37.699Z,56.69
2019-02-18T23:11:09.575Z,56.92
2019-02-18T23:13:39.818Z,56.74
2019-02-18T23:16:10.074Z,56.79
2019-02-18T23:18:44.434Z,56.28
2019-02-18T23:21:20.849Z,56.02
2019-02-18T23:23:51.395Z,56.52
2019-02-18T23:26:21.873Z,56.40
2019-02-18T23:28:52.320Z,56.02
2019-02-18T23:33:55.996Z,56.23
2019-02-18T23:36:26.793Z,56.29
2019-02-18T23:39:16.569Z,56.52
2019-02-18T23:41:46.996Z,56.81
2019-02-18T23:44:33.560Z,57.02
2019-02-18T23:47:03.739Z,56.93
2019-02-18T23:49:33.934Z,56.75
2019-02-18T23:52:04.116Z,57.17
2019-02-18T23:54:34.318Z,56.84
2019-02-18T23:57:04.502Z,56.93
2019-02-18T23:59:41.824Z,56.95
